.
WxDataArchive / Data Records for 2006-05-12
2006-05-11 May 2006 2006-05-13

Data Records for Friday, 12 May 2006

Time	Temp	Chill	HIndex	Humid	Dewpt	 Wind 	HiWind	WindDir	Rain 	Barom 
-----	----	-----	------	-----	-----	------	------	-------	-----	----- 
00:00	44.1	44.1	44.1	91	41.6	1	4	248	0.00	29.403 
00:05	44.1	44.1	44.1	91	41.6	2	4	248	0.00	29.403 
00:10	43.9	43.9	43.9	91	41.4	1	3	248	0.01	29.403 
00:15	43.6	43.6	43.6	91	41.1	1	3	248	0.00	29.405 
00:20	43.3	43.3	43.3	91	40.9	1	3	248	0.00	29.405 
00:25	43.2	43.2	43.2	91	40.8	1	3	248	0.01	29.405 
00:30	43.1	43.1	43.1	91	40.7	1	3	248	0.00	29.410 
00:35	42.9	42.9	42.9	92	40.7	1	3	248	0.00	29.410 
00:40	42.8	42.8	42.8	92	40.6	1	3	248	0.00	29.410 
00:45	42.8	42.8	42.8	92	40.6	1	4	248	0.00	29.410 
00:50	42.6	42.6	42.6	92	40.4	1	5	248	0.00	29.410 
00:55	42.5	42.5	42.5	92	40.3	1	4	248	0.00	29.410 
01:00	42.3	42.3	42.3	92	40.1	1	3	248	0.00	29.406 
01:05	42.2	42.2	42.2	92	40.0	1	3	292	0.00	29.406 
01:10	42.1	42.1	42.1	92	39.9	1	3	248	0.01	29.406 
01:15	42.1	42.1	42.1	92	39.9	1	2	248	0.00	29.406 
01:20	42.1	42.1	42.1	92	39.9	0	2	248	0.00	29.406 
01:25	42.1	42.1	42.1	92	39.9	0	2	248	0.00	29.406 
01:30	42.1	42.1	42.1	92	39.9	1	3	248	0.01	29.402 
01:35	42.1	42.1	42.1	93	40.2	0	1	248	0.00	29.402 
01:40	42.1	42.1	42.1	93	40.2	1	3	248	0.00	29.402 
01:45	42.1	42.1	42.1	93	40.2	1	2	248	0.00	29.401 
01:50	42.2	42.2	42.2	93	40.3	1	2	248	0.00	29.401 
01:55	42.2	42.2	42.2	93	40.3	1	4	248	0.00	29.401 
02:00	42.1	42.1	42.1	93	40.2	2	5	248	0.00	29.397 
02:05	41.8	41.8	41.8	92	39.6	3	6	248	0.00	29.397 
02:10	41.6	41.6	41.6	91	39.2	3	7	248	0.00	29.397 
02:15	41.3	41.3	41.3	91	38.9	3	6	270	0.00	29.400 
02:20	41.1	41.1	41.1	90	38.4	3	5	270	0.00	29.400 
02:25	40.9	40.9	40.9	90	38.2	2	4	248	0.00	29.400 
02:30	40.8	40.8	40.8	90	38.1	2	7	248	0.00	29.398 
02:35	40.6	40.6	40.6	90	37.9	3	9	270	0.00	29.398 
02:40	40.6	40.6	40.6	89	37.6	3	6	248	0.00	29.398 
02:45	40.5	40.5	40.5	90	37.8	3	7	248	0.00	29.390 
02:50	40.5	40.5	40.5	90	37.8	2	5	248	0.00	29.390 
02:55	40.5	40.5	40.5	91	38.1	2	5	248	0.00	29.390 
03:00	40.5	40.5	40.5	91	38.1	2	7	248	0.00	29.389 
03:05	40.5	40.5	40.5	90	37.8	3	9	248	0.00	29.389 
03:10	40.2	40.2	40.2	88	36.9	3	10	248	0.01	29.389 
03:15	40.1	40.1	40.1	88	36.8	2	4	248	0.00	29.388 
03:20	40.1	40.1	40.1	89	37.1	2	5	248	0.00	29.388 
03:25	39.9	39.9	39.9	90	37.2	2	5	248	0.00	29.388 
03:30	39.6	39.6	39.6	89	36.6	3	5	248	0.00	29.383 
03:35	39.5	39.5	39.5	89	36.5	2	5	248	0.00	29.383 
03:40	39.5	39.5	39.5	90	36.8	2	7	270	0.00	29.383 
03:45	39.3	39.3	39.3	90	36.6	2	5	248	0.00	29.378 
03:50	39.3	39.3	39.3	90	36.6	3	11	248	0.00	29.378 
03:55	39.3	39.3	39.3	90	36.6	2	11	270	0.01	29.378 
04:00	39.3	39.3	39.3	90	36.6	2	6	270	0.00	29.377 
04:05	39.2	39.2	39.2	90	36.5	3	7	270	0.00	29.377 
04:10	39.2	39.2	39.2	91	36.8	1	4	270	0.01	29.377 
04:15	39.2	39.2	39.2	91	36.8	2	5	248	0.00	29.375 
04:20	39.2	39.2	39.2	91	36.8	2	10	248	0.01	29.375 
04:25	39.2	39.2	39.2	91	36.8	2	4	248	0.00	29.375 
04:30	39.2	39.2	39.2	91	36.8	3	7	248	0.00	29.374 
04:35	39.3	39.3	39.3	92	37.2	2	5	270	0.00	29.374 
04:40	39.3	39.3	39.3	92	37.2	2	5	248	0.01	29.374 
04:45	39.3	39.3	39.3	92	37.2	1	5	248	0.00	29.373 
04:50	39.3	39.3	39.3	92	37.2	2	5	270	0.00	29.373 
04:55	39.5	39.5	39.5	92	37.4	3	6	270	0.00	29.373 
05:00	39.5	39.5	39.5	92	37.4	2	5	248	0.01	29.370 
05:05	39.5	39.5	39.5	92	37.4	2	4	270	0.00	29.370 
05:10	39.6	39.6	39.6	92	37.5	1	4	248	0.00	29.370 
05:15	39.6	39.6	39.6	92	37.5	2	4	248	0.00	29.373 
05:20	39.6	39.6	39.6	92	37.5	2	6	248	0.01	29.373 
05:25	39.6	39.6	39.6	92	37.5	2	6	248	0.00	29.373 
05:30	39.6	39.6	39.6	92	37.5	2	6	248	0.00	29.374 
05:35	39.5	39.5	39.5	92	37.4	2	5	248	0.00	29.374 
05:40	39.2	39.2	39.2	91	36.8	3	7	270	0.00	29.374 
05:45	39.1	39.1	39.1	91	36.7	3	7	248	0.00	29.374 
05:50	38.9	38.9	38.9	90	36.2	3	8	270	0.00	29.374 
05:55	38.8	38.8	38.8	91	36.4	3	7	270	0.00	29.374 
06:00	38.6	38.6	38.6	91	36.2	2	6	248	0.00	29.376 
06:05	38.6	38.6	38.6	91	36.2	2	4	248	0.00	29.376 
06:10	38.6	38.6	38.6	91	36.2	2	5	248	0.00	29.376 
06:15	38.5	38.5	38.5	91	36.1	2	6	248	0.00	29.377 
06:20	38.5	38.5	38.5	91	36.1	3	5	248	0.01	29.377 
06:25	38.3	38.3	38.3	91	35.9	2	6	248	0.00	29.377 
06:30	38.3	38.3	38.3	91	35.9	2	4	248	0.00	29.380 
06:35	38.3	38.3	38.3	91	35.9	2	6	248	0.00	29.380 
06:40	38.5	38.5	38.5	91	36.1	2	6	248	0.00	29.380 
06:45	38.5	38.5	38.5	91	36.1	3	7	248	0.00	29.381 
06:50	38.5	38.5	38.5	91	36.1	3	6	248	0.00	29.381 
06:55	38.5	38.5	38.5	91	36.1	2	6	248	0.00	29.381 
07:00	38.6	38.6	38.6	91	36.2	1	4	248	0.00	29.382 
07:05	38.6	38.6	38.6	92	36.5	2	4	248	0.00	29.382 
07:10	38.6	38.6	38.6	92	36.5	2	4	270	0.00	29.382 
07:15	38.8	38.8	38.8	92	36.7	2	3	248	0.00	29.392 
07:20	38.8	38.8	38.8	92	36.7	3	9	248	0.00	29.392 
07:25	38.8	38.8	38.8	91	36.4	3	7	270	0.00	29.392 
07:30	38.9	38.9	38.9	91	36.5	2	5	270	0.00	29.392 
07:35	38.9	38.9	38.9	91	36.5	3	6	248	0.00	29.392 
07:40	39.1	39.1	39.1	90	36.4	3	5	248	0.00	29.392 
07:45	39.1	39.1	39.1	90	36.4	3	6	248	0.00	29.394 
07:50	39.1	39.1	39.1	90	36.4	2	9	248	0.01	29.394 
07:55	39.1	39.1	39.1	90	36.4	2	6	248	0.00	29.394 
08:00	39.1	39.1	39.1	90	36.4	2	5	248	0.00	29.396 
08:05	39.1	39.1	39.1	91	36.7	2	6	248	0.00	29.396 
08:10	39.1	39.1	39.1	91	36.7	2	6	248	0.00	29.396 
08:15	39.2	39.2	39.2	91	36.8	2	6	248	0.01	29.400 
08:20	39.2	39.2	39.2	92	37.1	2	4	248	0.00	29.400 
08:25	39.3	39.3	39.3	92	37.2	2	4	248	0.00	29.400 
08:30	39.3	39.3	39.3	92	37.2	2	5	248	0.00	29.406 
08:35	39.3	39.3	39.3	92	37.2	2	6	248	0.00	29.406 
08:40	39.3	39.3	39.3	91	36.9	3	5	248	0.00	29.406 
08:45	39.3	39.3	39.3	91	36.9	3	6	270	0.00	29.409 
08:50	39.3	39.3	39.3	91	36.9	2	4	248	0.00	29.409 
08:55	39.5	39.5	39.5	90	36.8	2	5	248	0.00	29.409 
09:00	39.5	39.5	39.5	90	36.8	1	4	248	0.00	29.411 
09:05	39.6	39.6	39.6	91	37.2	2	5	248	0.00	29.411 
09:10	39.8	39.8	39.8	91	37.4	2	5	248	0.00	29.411 
09:15	39.9	39.9	39.9	90	37.2	2	5	248	0.01	29.415 
09:20	40.1	40.1	40.1	91	37.7	1	4	248	0.00	29.415 
09:25	40.1	40.1	40.1	91	37.7	2	4	248	0.00	29.415 
09:30	40.2	40.2	40.2	90	37.5	3	7	248	0.00	29.419 
09:35	40.2	40.2	40.2	90	37.5	3	9	248	0.00	29.419 
09:40	40.2	40.2	40.2	89	37.2	3	9	248	0.00	29.419 
09:45	40.3	40.3	40.3	90	37.6	3	11	270	0.01	29.424 
09:50	40.2	40.2	40.2	90	37.5	2	6	270	0.00	29.424 
09:55	40.2	40.2	40.2	89	37.2	3	7	248	0.00	29.424 
10:00	40.3	40.3	40.3	89	37.3	2	5	248	0.00	29.425 
10:05	40.5	40.5	40.5	90	37.8	2	6	248	0.00	29.425 
10:10	40.5	40.5	40.5	89	37.5	3	10	270	0.00	29.425 
10:15	40.3	40.3	40.3	89	37.3	3	6	248	0.00	29.426 
10:20	40.3	40.3	40.3	89	37.3	2	7	270	0.01	29.426 
10:25	40.2	40.2	40.2	88	36.9	3	9	248	0.00	29.426 
10:30	40.1	40.1	40.1	89	37.1	3	6	248	0.00	29.436 
10:35	40.3	40.3	40.3	90	37.6	2	5	248	0.01	29.436 
10:40	40.6	38.0	40.6	90	37.9	4	10	248	0.00	29.436 
10:45	41.1	41.1	41.1	91	38.7	2	7	248	0.00	29.438 
10:50	41.1	38.6	41.1	89	38.1	4	11	270	0.00	29.438 
10:55	41.2	41.2	41.2	88	37.9	3	9	270	0.00	29.438 
11:00	41.3	41.3	41.3	89	38.3	2	5	248	0.00	29.441 
11:05	41.3	41.3	41.3	88	38.0	3	7	270	0.00	29.441 
11:10	41.3	41.3	41.3	87	37.7	3	9	248	0.00	29.441 
11:15	41.3	41.3	41.3	87	37.7	3	5	248	0.00	29.443 
11:20	41.5	41.5	41.5	88	38.2	2	5	248	0.00	29.443 
11:25	41.6	41.6	41.6	88	38.3	2	5	248	0.00	29.443 
11:30	41.6	41.6	41.6	88	38.3	2	7	248	0.00	29.450 
11:35	41.8	41.8	41.8	87	38.2	2	5	270	0.00	29.450 
11:40	41.8	41.8	41.8	86	37.9	3	8	248	0.00	29.450 
11:45	41.8	41.8	41.8	85	37.6	3	9	248	0.00	29.456 
11:50	41.9	41.9	41.9	86	38.0	2	6	248	0.00	29.456 
11:55	41.9	41.9	41.9	86	38.0	3	7	248	0.00	29.456 
12:00	42.1	42.1	42.1	85	37.9	3	7	248	0.00	29.457 
12:05	42.1	42.1	42.1	85	37.9	3	7	248	0.00	29.457 
12:10	42.1	42.1	42.1	87	38.5	3	7	248	0.00	29.457 
12:15	42.2	42.2	42.2	85	38.0	3	5	248	0.00	29.462 
12:20	42.3	42.3	42.3	85	38.1	3	6	248	0.00	29.462 
12:25	42.6	42.6	42.6	84	38.1	2	5	248	0.00	29.462 
12:30	42.9	42.9	42.9	84	38.4	3	9	248	0.00	29.470 
12:35	43.3	43.3	43.3	84	38.8	2	8	248	0.00	29.470 
12:40	43.3	43.3	43.3	83	38.5	3	7	248	0.00	29.470 
12:45	43.3	43.3	43.3	83	38.5	3	10	248	0.00	29.475 
12:50	43.5	43.5	43.5	84	39.0	2	5	248	0.00	29.475 
12:55	43.6	43.6	43.6	83	38.8	2	7	270	0.00	29.475 
13:00	43.8	43.8	43.8	83	39.0	1	4	248	0.00	29.475 
13:05	43.6	43.6	43.6	81	38.2	3	10	248	0.00	29.475 
13:10	43.5	43.5	43.5	82	38.4	3	9	248	0.00	29.475 
13:15	43.6	43.6	43.6	82	38.5	3	9	248	0.00	29.481 
13:20	43.6	43.6	43.6	80	37.8	3	10	248	0.00	29.481 
13:25	43.8	43.8	43.8	81	38.4	3	7	248	0.00	29.481 
13:30	43.6	41.5	43.6	81	38.2	4	7	248	0.00	29.487 
13:35	43.5	41.4	43.5	82	38.4	4	6	270	0.00	29.487 
13:40	43.5	43.5	43.5	82	38.4	2	6	248	0.00	29.487 
13:45	43.6	43.6	43.6	83	38.8	3	6	248	0.00	29.489 
13:50	43.8	43.8	43.8	84	39.3	2	7	248	0.00	29.489 
13:55	43.6	43.6	43.6	84	39.1	3	6	248	0.00	29.489 
14:00	43.6	43.6	43.6	85	39.4	3	7	248	0.00	29.497 
14:05	43.5	43.5	43.5	86	39.6	2	6	248	0.00	29.497 
14:10	43.5	43.5	43.5	86	39.6	2	5	248	0.00	29.497 
14:15	43.5	43.5	43.5	87	39.9	2	5	270	0.00	29.507 
14:20	43.2	41.0	43.2	87	39.6	4	10	270	0.01	29.507 
14:25	42.9	42.9	42.9	87	39.3	3	10	248	0.00	29.507 
14:30	43.1	43.1	43.1	88	39.8	2	5	248	0.00	29.507 
14:35	43.1	43.1	43.1	88	39.8	3	6	248	0.00	29.507 
14:40	43.2	43.2	43.2	88	39.9	2	4	248	0.00	29.507 
14:45	43.2	43.2	43.2	89	40.2	2	5	248	0.00	29.510 
14:50	43.3	43.3	43.3	89	40.3	2	6	248	0.00	29.510 
14:55	43.3	43.3	43.3	88	40.0	2	5	270	0.00	29.510 
15:00	43.3	43.3	43.3	89	40.3	2	5	248	0.01	29.518 
15:05	43.3	43.3	43.3	89	40.3	3	5	248	0.00	29.518 
15:10	43.5	43.5	43.5	89	40.5	3	5	248	0.00	29.518 
15:15	43.8	43.8	43.8	90	41.1	2	5	248	0.00	29.521 
15:20	43.9	43.9	43.9	89	40.9	3	6	248	0.00	29.521 
15:25	44.1	44.1	44.1	90	41.4	1	3	248	0.00	29.521 
15:30	44.1	44.1	44.1	88	40.8	3	7	248	0.01	29.526 
15:35	44.1	44.1	44.1	89	41.1	3	9	248	0.00	29.526 
15:40	44.1	44.1	44.1	89	41.1	1	5	248	0.00	29.526 
15:45	44.1	44.1	44.1	89	41.1	2	6	248	0.00	29.533 
15:50	44.2	44.2	44.2	89	41.2	2	6	248	0.01	29.533 
15:55	44.2	44.2	44.2	90	41.5	2	5	248	0.00	29.533 
16:00	44.2	44.2	44.2	89	41.2	3	6	248	0.00	29.534 
16:05	44.5	44.5	44.5	89	41.5	2	5	270	0.00	29.534 
16:10	44.5	44.5	44.5	89	41.5	3	7	270	0.00	29.534 
16:15	44.8	44.8	44.8	89	41.8	2	7	270	0.00	29.533 
16:20	44.6	44.6	44.6	88	41.3	3	8	248	0.00	29.533 
16:25	44.9	44.9	44.9	89	41.9	2	6	248	0.00	29.533 
16:30	45.2	45.2	45.2	89	42.2	2	5	248	0.00	29.537 
16:35	45.4	45.4	45.4	88	42.1	2	6	248	0.00	29.537 
16:40	45.1	45.1	45.1	87	41.5	2	7	270	0.00	29.537 
16:45	44.9	44.9	44.9	86	41.0	3	7	270	0.00	29.541 
16:50	44.9	44.9	44.9	87	41.3	3	6	248	0.01	29.541 
16:55	44.9	44.9	44.9	88	41.6	2	6	248	0.00	29.541 
17:00	44.8	44.8	44.8	88	41.5	1	3	248	0.00	29.549 
17:05	44.8	44.8	44.8	89	41.8	3	6	248	0.00	29.549 
17:10	44.9	44.9	44.9	88	41.6	2	6	225	0.00	29.549 
17:15	44.9	44.9	44.9	88	41.6	2	7	248	0.00	29.551 
17:20	45.1	45.1	45.1	88	41.8	2	5	248	0.00	29.551 
17:25	45.1	45.1	45.1	87	41.5	2	4	248	0.00	29.551 
17:30	45.1	45.1	45.1	87	41.5	3	6	248	0.00	29.557 
17:35	45.1	45.1	45.1	87	41.5	3	10	270	0.00	29.557 
17:40	45.1	45.1	45.1	87	41.5	3	7	248	0.00	29.557 
17:45	44.9	43.0	44.9	86	41.0	4	7	270	0.01	29.565 
17:50	45.1	45.1	45.1	86	41.2	3	7	270	0.00	29.565 
17:55	45.1	43.2	45.1	86	41.2	4	7	270	0.00	29.565 
18:00	45.1	45.1	45.1	85	40.9	3	7	248	0.00	29.568 
18:05	45.1	45.1	45.1	84	40.6	3	6	270	0.00	29.568 
18:10	44.9	43.0	44.9	84	40.4	4	8	270	0.00	29.568 
18:15	44.9	43.0	44.9	84	40.4	4	9	270	0.00	29.569 
18:20	44.8	44.8	44.8	85	40.6	3	5	248	0.00	29.569 
18:25	44.8	44.8	44.8	86	40.9	2	5	248	0.00	29.569 
18:30	44.8	44.8	44.8	87	41.2	2	4	248	0.00	29.578 
18:35	44.8	44.8	44.8	87	41.2	2	5	248	0.00	29.578 
18:40	44.8	44.8	44.8	87	41.2	3	7	270	0.00	29.578 
18:45	44.9	44.9	44.9	87	41.3	2	5	248	0.00	29.580 
18:50	45.2	45.2	45.2	87	41.6	2	7	248	0.00	29.580 
18:55	45.4	45.4	45.4	86	41.5	2	6	248	0.00	29.580 
19:00	45.2	45.2	45.2	85	41.0	3	6	248	0.01	29.581 
19:05	45.2	45.2	45.2	85	41.0	2	6	248	0.00	29.581 
19:10	45.1	45.1	45.1	85	40.9	3	8	248	0.00	29.581 
19:15	44.9	44.9	44.9	86	41.0	2	5	248	0.00	29.582 
19:20	44.9	44.9	44.9	86	41.0	2	5	248	0.00	29.582 
19:25	44.8	44.8	44.8	86	40.9	2	5	248	0.00	29.582 
19:30	44.8	44.8	44.8	86	40.9	2	4	248	0.00	29.586 
19:35	44.8	44.8	44.8	86	40.9	2	5	248	0.00	29.586 
19:40	44.8	44.8	44.8	86	40.9	2	5	248	0.00	29.586 
19:45	44.6	44.6	44.6	85	40.4	3	9	248	0.00	29.591 
19:50	44.6	44.6	44.6	84	40.1	3	6	248	0.00	29.591 
19:55	44.6	44.6	44.6	85	40.4	3	11	248	0.00	29.591 
20:00	44.6	44.6	44.6	84	40.1	3	5	248	0.00	29.601 
20:05	44.5	44.5	44.5	84	40.0	2	6	248	0.00	29.601 
20:10	44.5	44.5	44.5	84	40.0	2	5	248	0.00	29.601 
20:15	44.5	44.5	44.5	84	40.0	2	6	248	0.00	29.603 
20:20	44.3	44.3	44.3	84	39.8	2	6	248	0.00	29.603 
20:25	44.3	44.3	44.3	85	40.1	2	5	248	0.00	29.603 
20:30	44.3	44.3	44.3	85	40.1	1	4	270	0.00	29.615 
20:35	44.3	44.3	44.3	84	39.8	2	5	248	0.00	29.615 
20:40	44.3	44.3	44.3	85	40.1	1	5	248	0.00	29.615 
20:45	44.3	44.3	44.3	85	40.1	1	2	248	0.00	29.616 
20:50	44.3	44.3	44.3	86	40.4	1	3	248	0.00	29.616 
20:55	44.3	44.3	44.3	86	40.4	1	4	248	0.00	29.616 
21:00	44.3	44.3	44.3	86	40.4	1	4	248	0.00	29.615 
21:05	44.2	44.2	44.2	86	40.3	1	3	248	0.00	29.615 
21:10	44.2	44.2	44.2	86	40.3	1	3	248	0.00	29.615 
21:15	44.2	44.2	44.2	86	40.3	1	2	248	0.00	29.618 
21:20	44.2	44.2	44.2	86	40.3	1	3	270	0.00	29.618 
21:25	44.2	44.2	44.2	85	40.0	1	4	248	0.00	29.618 
21:30	44.2	44.2	44.2	86	40.3	1	4	248	0.00	29.620 
21:35	44.2	44.2	44.2	85	40.0	2	4	248	0.00	29.620 
21:40	44.2	44.2	44.2	85	40.0	1	4	248	0.00	29.620 
21:45	44.2	44.2	44.2	85	40.0	1	4	248	0.00	29.627 
21:50	44.1	44.1	44.1	86	40.2	1	2	248	0.00	29.627 
21:55	44.1	44.1	44.1	86	40.2	1	4	248	0.00	29.627 
22:00	44.1	44.1	44.1	85	39.9	2	5	248	0.00	29.631 
22:05	44.1	44.1	44.1	85	39.9	1	4	248	0.00	29.631 
22:10	43.9	43.9	43.9	85	39.7	1	4	248	0.00	29.631 
22:15	43.9	43.9	43.9	85	39.7	1	2	248	0.00	29.633 
22:20	43.8	43.8	43.8	85	39.6	1	3	248	0.00	29.633 
22:25	43.8	43.8	43.8	85	39.6	1	3	248	0.00	29.633 
22:30	43.8	43.8	43.8	85	39.6	1	4	248	0.00	29.633 
22:35	43.8	43.8	43.8	86	39.9	1	2	270	0.00	29.633 
22:40	43.8	43.8	43.8	85	39.6	1	3	248	0.00	29.633 
22:45	43.8	43.8	43.8	85	39.6	1	5	248	0.00	29.635 
22:50	43.8	43.8	43.8	86	39.9	1	2	248	0.00	29.635 
22:55	43.8	43.8	43.8	86	39.9	1	4	248	0.00	29.635 
23:00	43.8	43.8	43.8	86	39.9	0	1	90	0.00	29.635 
23:05	43.8	43.8	43.8	87	40.2	0	2	90	0.00	29.635 
23:10	43.8	43.8	43.8	87	40.2	0	2	90	0.00	29.635 
23:15	43.8	43.8	43.8	88	40.5	0	2	202	0.00	29.632 
23:20	43.6	43.6	43.6	88	40.3	1	2	248	0.00	29.632 
23:25	43.8	43.8	43.8	88	40.5	1	3	248	0.00	29.632 
23:30	43.8	43.8	43.8	88	40.5	1	4	270	0.00	29.634 
23:35	43.8	43.8	43.8	89	40.8	1	3	248	0.00	29.634 
23:40	43.8	43.8	43.8	88	40.5	1	5	248	0.00	29.634 
23:45	43.8	43.8	43.8	88	40.5	1	4	292	0.00	29.632 
23:50	43.6	43.6	43.6	87	40.0	2	6	248	0.00	29.632 
23:55	43.6	43.6	43.6	86	39.7	2	7	248	0.00	29.632 

CoCoRaHS
IN-AL-39
A2 Web Hosting
Creative Commons License
GoDaddy
Look for:

loaded 2017-12-11 23:11:59 • last modified 2010-11-18 10:43:29
Privacy PolicyDisclaimer
• wx.awcolley.com is powered by PmWiki v.2002016 •
• all content (unless otherwise noted) © 2017 A W Colley